Time;durP1;ratioP1;P1;durP2;ratioP2;P2;SDS_P1;SDS_P2;PMS_P1;PMS_P2;Temp;Humidity;BMP_temperature;BMP_pressure;BME280_temperature;BME280_humidity;BME280_pressure;Samples;Min_cycle;Max_cycle;Signal;HPM_P1;HPM_P2
2021/04/09 00:00:25;;;;;;;22.27;13.53;;;3.10;99.90;;;;;;5066990;28;20234;-62
2021/04/09 00:02:56;;;;;;;24.03;14.80;;;3.10;99.90;;;;;;5064190;28;20281;-61
2021/04/09 00:05:25;;;;;;;24.83;14.50;;;3.00;99.90;;;;;;5064910;28;20268;-62
2021/04/09 00:07:55;;;;;;;29.93;15.90;;;3.00;99.90;;;;;;5067899;28;20216;-62
2021/04/09 00:10:24;;;;;;;32.43;15.97;;;3.10;99.90;;;;;;5072994;28;20200;-62
2021/04/09 00:12:52;;;;;;;23.97;15.13;;;3.30;99.90;;;;;;5063788;28;20756;-62
2021/04/09 00:15:20;;;;;;;25.30;15.10;;;3.40;99.90;;;;;;5063340;28;20314;-62
2021/04/09 00:17:47;;;;;;;27.57;15.97;;;3.40;99.90;;;;;;5069445;28;20250;-62
2021/04/09 00:20:18;;;;;;;25.77;15.83;;;3.40;99.90;;;;;;5066802;28;20222;-62
2021/04/09 00:22:45;;;;;;;25.60;14.90;;;3.50;99.90;;;;;;5067784;28;20210;-62
2021/04/09 00:25:14;;;;;;;22.37;14.97;;;3.60;99.90;;;;;;5071737;28;20279;-62
2021/04/09 00:27:42;;;;;;;25.80;14.70;;;3.60;99.90;;;;;;5067751;28;20218;-63
2021/04/09 00:30:17;;;;;;;26.50;14.67;;;3.70;99.90;;;;;;5067027;28;20703;-62
2021/04/09 00:32:44;;;;;;;27.40;14.83;;;3.70;99.90;;;;;;5066685;28;20222;-62
2021/04/09 00:35:16;;;;;;;22.67;14.07;;;3.70;99.90;;;;;;5067767;28;20231;-62
2021/04/09 00:37:43;;;;;;;30.67;14.97;;;3.80;99.90;;;;;;5067139;28;20846;-63
2021/04/09 00:40:12;;;;;;;24.00;14.77;;;3.80;99.90;;;;;;5066065;28;20329;-61
2021/04/09 00:42:41;;;;;;;33.00;15.07;;;3.80;99.90;;;;;;5067844;28;20200;-62
2021/04/09 00:45:10;;;;;;;23.70;14.23;;;3.80;99.90;;;;;;5067065;28;20216;-63
2021/04/09 00:47:38;;;;;;;24.00;14.30;;;3.80;99.90;;;;;;5064786;28;20184;-62
2021/04/09 00:50:06;;;;;;;24.53;14.33;;;3.80;99.90;;;;;;5069157;28;20648;-62
2021/04/09 00:52:36;;;;;;;21.90;13.27;;;3.90;99.90;;;;;;5066989;28;20733;-62
2021/04/09 00:55:05;;;;;;;25.97;13.83;;;3.90;99.90;;;;;;5059357;28;20216;-62
2021/04/09 00:57:34;;;;;;;22.37;13.20;;;4.00;99.90;;;;;;5065979;28;20254;-62
2021/04/09 01:00:05;;;;;;;20.07;12.80;;;4.00;99.90;;;;;;5073873;28;20249;-62
2021/04/09 01:02:32;;;;;;;19.17;12.40;;;4.10;99.90;;;;;;5068541;28;20233;-62
2021/04/09 01:05:00;;;;;;;23.37;13.13;;;4.20;99.90;;;;;;5064170;28;20687;-62
2021/04/09 01:07:28;;;;;;;24.77;13.03;;;4.20;99.90;;;;;;5074897;28;20219;-62
2021/04/09 01:09:56;;;;;;;22.57;12.90;;;4.20;99.90;;;;;;5069480;28;20679;-61
2021/04/09 01:12:24;;;;;;;27.27;13.03;;;4.20;99.90;;;;;;5085288;28;20207;-62
2021/04/09 01:14:52;;;;;;;20.43;13.07;;;4.20;99.90;;;;;;5064821;28;20227;-63
2021/04/09 01:17:26;;;;;;;23.63;12.40;;;4.10;99.90;;;;;;5068899;28;20577;-62
2021/04/09 01:20:27;;;;;;;21.43;12.57;;;4.10;99.90;;;;;;5070994;28;20200;-62
2021/04/09 01:23:07;;;;;;;19.97;12.20;;;4.00;99.90;;;;;;5062437;28;20228;-62
2021/04/09 01:26:11;;;;;;;20.00;12.40;;;4.00;99.90;;;;;;5074315;28;20655;-63
2021/04/09 01:28:54;;;;;;;22.63;12.97;;;4.00;99.90;;;;;;5047061;28;20729;-62
2021/04/09 01:31:44;;;;;;;21.37;13.07;;;4.00;99.90;;;;;;5080945;28;20192;-63
2021/04/09 01:34:15;;;;;;;24.87;12.77;;;3.90;99.90;;;;;;5068431;28;20678;-62
2021/04/09 01:36:47;;;;;;;22.93;12.07;;;3.80;99.90;;;;;;5069567;28;20204;-63
2021/04/09 01:39:24;;;;;;;21.30;12.87;;;3.70;99.90;;;;;;5074171;28;20739;-63
2021/04/09 01:41:53;;;;;;;26.03;12.80;;;3.60;99.90;;;;;;5070873;28;20196;-63
2021/04/09 01:44:24;;;;;;;19.37;12.40;;;3.50;99.90;;;;;;5070418;28;20784;-61
2021/04/09 01:46:57;;;;;;;19.97;12.27;;;3.40;99.90;;;;;;5070011;28;20199;-63
2021/04/09 01:49:27;;;;;;;25.33;13.57;;;3.20;99.90;;;;;;5070196;28;20196;-62
2021/04/09 01:51:55;;;;;;;23.67;13.23;;;3.10;99.90;;;;;;5069614;28;20437;-63
2021/04/09 01:54:26;;;;;;;21.70;12.83;;;3.00;99.90;;;;;;5074116;28;20215;-62
2021/04/09 01:56:54;;;;;;;22.43;12.80;;;3.00;99.90;;;;;;5071512;28;20191;-63
2021/04/09 01:59:23;;;;;;;20.73;12.97;;;3.00;99.90;;;;;;5071792;28;20191;-62
2021/04/09 02:01:52;;;;;;;22.87;12.77;;;2.90;99.90;;;;;;5068316;28;20198;-62
2021/04/09 02:04:21;;;;;;;25.23;13.90;;;2.90;99.90;;;;;;5069523;28;20196;-63
2021/04/09 02:06:51;;;;;;;19.87;12.90;;;2.90;99.90;;;;;;5073069;28;20238;-62
2021/04/09 02:09:19;;;;;;;23.77;13.10;;;2.90;99.90;;;;;;5072499;28;20290;-62
2021/04/09 02:11:49;;;;;;;23.83;13.17;;;2.80;99.90;;;;;;5067948;28;20687;-62
2021/04/09 02:14:17;;;;;;;24.03;12.77;;;2.80;99.90;;;;;;5068646;28;20295;-62
2021/04/09 02:16:45;;;;;;;30.67;13.37;;;2.80;99.90;;;;;;5071289;28;20236;-62
2021/04/09 02:19:14;;;;;;;25.77;13.90;;;2.80;99.90;;;;;;5076468;28;20841;-63
2021/04/09 02:21:42;;;;;;;22.50;13.83;;;2.70;99.90;;;;;;5078123;28;20227;-62
2021/04/09 02:24:10;;;;;;;21.00;14.00;;;2.70;99.90;;;;;;5069761;28;20561;-62
2021/04/09 02:26:38;;;;;;;24.27;14.13;;;2.70;99.90;;;;;;5072071;28;20203;-62
2021/04/09 02:29:06;;;;;;;25.23;13.97;;;2.60;99.90;;;;;;5069446;28;20647;-62
2021/04/09 02:31:34;;;;;;;23.70;13.27;;;2.60;99.90;;;;;;5069735;28;20262;-62
2021/04/09 02:34:02;;;;;;;29.00;13.90;;;2.60;99.90;;;;;;5069686;28;20710;-62
2021/04/09 02:36:31;;;;;;;20.97;13.03;;;2.60;99.90;;;;;;5073176;28;20203;-62
2021/04/09 02:39:05;;;;;;;26.63;13.90;;;2.60;99.90;;;;;;5069637;28;20250;-62
2021/04/09 02:41:37;;;;;;;26.23;13.50;;;2.50;99.90;;;;;;5072484;28;20219;-62
2021/04/09 02:44:05;;;;;;;28.17;14.00;;;2.50;99.90;;;;;;5068948;28;20276;-62
2021/04/09 02:46:38;;;;;;;27.53;13.80;;;2.50;99.90;;;;;;5071770;28;20184;-62
2021/04/09 02:49:13;;;;;;;24.47;13.80;;;2.50;99.90;;;;;;5065145;28;20188;-62
2021/04/09 02:51:44;;;;;;;27.63;14.13;;;2.60;99.90;;;;;;5066275;28;20199;-62
2021/04/09 02:54:16;;;;;;;27.90;14.30;;;2.50;99.90;;;;;;5067329;28;20202;-62
2021/04/09 02:56:44;;;;;;;27.40;14.17;;;2.50;99.90;;;;;;5067556;28;20619;-62
2021/04/09 02:59:14;;;;;;;24.10;13.73;;;2.50;99.90;;;;;;5067817;28;20223;-62
2021/04/09 03:01:43;;;;;;;26.27;13.40;;;2.40;99.90;;;;;;5078460;28;20217;-61
2021/04/09 03:04:12;;;;;;;24.73;13.63;;;2.30;99.90;;;;;;5064659;28;20200;-62
2021/04/09 03:06:43;;;;;;;22.27;13.00;;;2.20;99.90;;;;;;5068280;28;20189;-62
2021/04/09 03:09:12;;;;;;;23.50;13.00;;;2.20;99.90;;;;;;5068070;28;20207;-62
2021/04/09 03:11:42;;;;;;;24.00;13.47;;;2.10;99.90;;;;;;5073235;28;20287;-62
2021/04/09 03:14:11;;;;;;;25.77;13.23;;;2.20;99.90;;;;;;5066520;28;20555;-62
2021/04/09 03:16:44;;;;;;;29.13;13.63;;;2.20;99.90;;;;;;5068240;28;20345;-62
2021/04/09 03:19:11;;;;;;;25.57;13.77;;;2.20;99.90;;;;;;5056802;28;20289;-62
2021/04/09 03:21:39;;;;;;;23.90;13.53;;;2.20;99.90;;;;;;5069036;28;20242;-62
2021/04/09 03:24:08;;;;;;;24.17;14.10;;;2.20;99.90;;;;;;5069311;28;20203;-62
2021/04/09 03:26:36;;;;;;;26.47;13.57;;;2.20;99.90;;;;;;5066145;28;20278;-62
2021/04/09 03:29:04;;;;;;;28.73;14.53;;;2.20;99.90;;;;;;5070602;28;20730;-62
2021/04/09 03:31:31;;;;;;;22.40;13.40;;;2.20;99.90;;;;;;5067796;28;20204;-62
2021/04/09 03:33:58;;;;;;;26.50;14.03;;;2.20;99.90;;;;;;5066781;28;20199;-62
2021/04/09 03:36:26;;;;;;;20.93;13.47;;;2.20;99.90;;;;;;5069886;28;20291;-62
2021/04/09 03:38:53;;;;;;;25.40;14.47;;;2.20;99.90;;;;;;5073642;28;20261;-62
2021/04/09 03:41:22;;;;;;;25.10;13.83;;;2.20;99.90;;;;;;5065490;28;21148;-62
2021/04/09 03:43:49;;;;;;;24.00;13.93;;;2.20;99.90;;;;;;5067055;28;20192;-62
2021/04/09 03:46:17;;;;;;;27.67;13.90;;;2.10;99.90;;;;;;5067837;28;20188;-62
2021/04/09 03:48:44;;;;;;;26.53;14.00;;;2.10;99.90;;;;;;5069764;28;20698;-62
2021/04/09 03:51:12;;;;;;;25.53;14.37;;;2.10;99.90;;;;;;5066433;28;20228;-62
2021/04/09 03:53:39;;;;;;;25.83;14.13;;;2.00;99.90;;;;;;5068962;28;20766;-62
2021/04/09 03:56:07;;;;;;;28.57;14.23;;;2.00;99.90;;;;;;5067836;28;20192;-61
2021/04/09 03:58:35;;;;;;;23.77;13.93;;;1.90;99.90;;;;;;5068141;28;20266;-62
2021/04/09 04:01:05;;;;;;;26.83;13.80;;;1.90;99.90;;;;;;5066944;28;20200;-62
2021/04/09 04:03:33;;;;;;;23.70;13.77;;;1.90;99.90;;;;;;5068636;28;20199;-62
2021/04/09 04:06:03;;;;;;;24.60;13.03;;;1.80;99.90;;;;;;5071327;28;20191;-62
2021/04/09 04:08:30;;;;;;;29.40;13.97;;;1.80;99.90;;;;;;5070036;28;20524;-62
2021/04/09 04:10:58;;;;;;;24.63;13.53;;;1.80;99.90;;;;;;5067353;28;20201;-62
2021/04/09 04:13:25;;;;;;;28.03;14.93;;;1.80;99.90;;;;;;5071612;28;20187;-62
2021/04/09 04:15:53;;;;;;;23.63;13.63;;;1.70;99.90;;;;;;5066164;28;20273;-62
2021/04/09 04:18:21;;;;;;;28.33;14.83;;;1.80;99.90;;;;;;5082994;28;20242;-62
2021/04/09 04:20:48;;;;;;;24.40;14.00;;;1.80;99.90;;;;;;5071278;28;20188;-61
2021/04/09 04:23:15;;;;;;;27.40;14.57;;;1.80;99.90;;;;;;5061151;28;20220;-61
2021/04/09 04:25:43;;;;;;;28.43;13.67;;;1.80;99.90;;;;;;5071736;28;20283;-62
2021/04/09 04:28:11;;;;;;;26.37;14.20;;;1.80;99.90;;;;;;5070461;28;20181;-61
2021/04/09 04:30:38;;;;;;;31.40;15.60;;;1.80;99.90;;;;;;5067392;28;20196;-62
2021/04/09 04:33:07;;;;;;;28.27;14.53;;;1.80;99.90;;;;;;5065626;28;20189;-61
2021/04/09 04:35:34;;;;;;;23.47;14.03;;;1.90;99.90;;;;;;5071300;28;20246;-62
2021/04/09 04:38:04;;;;;;;29.57;13.70;;;2.00;99.90;;;;;;5067025;28;20255;-62
2021/04/09 04:40:32;;;;;;;24.17;13.63;;;2.10;99.90;;;;;;5067449;28;20669;-62
2021/04/09 04:42:59;;;;;;;23.57;14.17;;;2.20;99.90;;;;;;5066507;28;20199;-62
2021/04/09 04:45:27;;;;;;;26.17;14.47;;;2.30;99.90;;;;;;5051103;28;20188;-62
2021/04/09 04:47:54;;;;;;;24.57;14.47;;;2.30;99.90;;;;;;5064329;28;20200;-62
2021/04/09 04:50:23;;;;;;;19.50;12.37;;;2.20;99.90;;;;;;5065058;28;20192;-62
2021/04/09 04:52:50;;;;;;;29.77;14.30;;;2.10;99.90;;;;;;5068016;28;20254;-62
2021/04/09 04:55:17;;;;;;;24.57;14.10;;;2.10;99.90;;;;;;5067713;28;20206;-61
2021/04/09 04:57:45;;;;;;;21.07;12.67;;;2.00;99.90;;;;;;5068376;28;20220;-62
2021/04/09 05:00:15;;;;;;;28.77;14.43;;;2.00;99.90;;;;;;5070311;28;20670;-61
2021/04/09 05:02:43;;;;;;;26.93;14.23;;;2.00;99.90;;;;;;5075952;28;20661;-62
2021/04/09 05:05:11;;;;;;;25.23;13.50;;;2.00;99.90;;;;;;5070244;28;20200;-62
2021/04/09 05:07:40;;;;;;;24.87;14.07;;;1.90;99.90;;;;;;5071538;28;20195;-62
2021/04/09 05:10:08;;;;;;;25.93;14.20;;;1.90;99.90;;;;;;5070001;28;20285;-60
2021/04/09 05:12:36;;;;;;;26.07;14.00;;;1.90;99.90;;;;;;5074857;28;20231;-62
2021/04/09 05:15:04;;;;;;;26.43;13.97;;;2.00;99.90;;;;;;5066361;28;20195;-61
2021/04/09 05:17:32;;;;;;;29.97;14.50;;;2.00;99.90;;;;;;5068912;28;20690;-61
2021/04/09 05:19:59;;;;;;;33.07;15.27;;;2.10;99.90;;;;;;5066570;28;20192;-62
2021/04/09 05:22:26;;;;;;;23.43;14.60;;;2.20;99.90;;;;;;5065249;28;20737;-62
2021/04/09 05:24:54;;;;;;;25.53;15.10;;;2.20;99.90;;;;;;5064912;28;20196;-62
2021/04/09 05:27:22;;;;;;;26.37;14.23;;;2.20;99.90;;;;;;5072321;28;20200;-62
2021/04/09 05:29:49;;;;;;;22.13;13.60;;;2.20;99.90;;;;;;5081450;28;20184;-62
2021/04/09 05:32:20;;;;;;;22.73;14.30;;;2.30;99.90;;;;;;5068051;28;20193;-62
2021/04/09 05:34:47;;;;;;;27.63;15.07;;;2.30;99.90;;;;;;5072985;28;20234;-62
2021/04/09 05:37:15;;;;;;;23.60;14.17;;;2.30;99.90;;;;;;5083060;28;20192;-62
2021/04/09 05:39:42;;;;;;;24.80;13.80;;;2.40;99.90;;;;;;5065422;28;20222;-62
2021/04/09 05:42:11;;;;;;;22.20;13.03;;;2.50;99.90;;;;;;5071135;28;20610;-61
2021/04/09 05:44:39;;;;;;;23.23;14.23;;;2.50;99.90;;;;;;5066934;28;20192;-62
2021/04/09 05:47:08;;;;;;;25.33;14.07;;;2.60;99.90;;;;;;5065987;28;20283;-62
2021/04/09 05:49:35;;;;;;;23.20;12.87;;;2.60;99.90;;;;;;5070985;28;20196;-62
2021/04/09 05:52:04;;;;;;;34.07;14.67;;;2.70;99.90;;;;;;5067407;28;20200;-62
2021/04/09 05:54:31;;;;;;;24.43;14.23;;;2.80;99.90;;;;;;5069004;28;20666;-62
2021/04/09 05:56:59;;;;;;;28.50;14.73;;;2.80;99.90;;;;;;5067946;28;20208;-62
2021/04/09 05:59:28;;;;;;;33.40;14.97;;;3.00;99.90;;;;;;5077314;28;20540;-62
2021/04/09 06:01:55;;;;;;;27.97;14.87;;;3.10;99.90;;;;;;5067351;28;20196;-62
2021/04/09 06:04:23;;;;;;;28.67;14.63;;;3.20;99.90;;;;;;5070059;28;20235;-62
2021/04/09 06:06:51;;;;;;;33.30;16.00;;;3.40;99.90;;;;;;5068483;28;20223;-62
2021/04/09 06:09:18;;;;;;;35.47;15.47;;;3.50;99.90;;;;;;5064015;28;20213;-62
2021/04/09 06:11:46;;;;;;;27.37;14.80;;;3.60;99.90;;;;;;5065685;28;20209;-62
2021/04/09 06:14:13;;;;;;;28.67;14.83;;;3.80;99.90;;;;;;5064746;28;20635;-62
2021/04/09 06:16:42;;;;;;;26.97;15.07;;;3.80;99.90;;;;;;5067982;28;20305;-62
2021/04/09 06:19:10;;;;;;;27.07;15.27;;;4.00;99.90;;;;;;5069879;28;20215;-62
2021/04/09 06:21:40;;;;;;;20.67;13.77;;;4.10;99.90;;;;;;5070054;28;20200;-62
2021/04/09 06:24:09;;;;;;;23.53;14.13;;;4.30;99.90;;;;;;5066405;28;20200;-62
2021/04/09 06:26:37;;;;;;;25.70;14.40;;;4.50;99.90;;;;;;5070514;28;20784;-62
2021/04/09 06:29:04;;;;;;;22.63;15.30;;;4.70;99.90;;;;;;5059655;28;20274;-62
2021/04/09 06:31:32;;;;;;;23.07;14.20;;;4.80;99.90;;;;;;5065669;28;20299;-61
2021/04/09 06:34:00;;;;;;;26.77;14.63;;;5.00;99.90;;;;;;5066894;28;20593;-62
2021/04/09 06:36:27;;;;;;;24.93;13.93;;;5.20;99.90;;;;;;5071125;28;20281;-62
2021/04/09 06:38:55;;;;;;;22.80;13.27;;;5.50;99.90;;;;;;5066778;28;20200;-62
2021/04/09 06:41:22;;;;;;;21.37;13.23;;;5.80;99.90;;;;;;5078226;28;20621;-62
2021/04/09 06:43:50;;;;;;;24.53;13.80;;;6.00;99.90;;;;;;5069805;28;20192;-62
2021/04/09 06:46:17;;;;;;;22.90;13.40;;;6.20;99.90;;;;;;5069582;28;20199;-62
2021/04/09 06:48:44;;;;;;;20.73;12.80;;;6.40;99.90;;;;;;5069288;28;20192;-62
2021/04/09 06:51:13;;;;;;;21.17;13.70;;;6.50;99.90;;;;;;5068417;28;20713;-62
2021/04/09 06:53:44;;;;;;;22.37;13.30;;;6.80;99.90;;;;;;5067083;28;20216;-63
2021/04/09 06:56:12;;;;;;;21.43;12.67;;;6.80;99.90;;;;;;5064880;28;20257;-62
2021/04/09 06:58:42;;;;;;;21.93;12.40;;;6.90;99.90;;;;;;5070202;28;20261;-62
2021/04/09 07:01:12;;;;;;;23.53;12.70;;;6.90;99.90;;;;;;5066712;28;20196;-62
2021/04/09 07:03:39;;;;;;;20.20;12.40;;;7.00;99.90;;;;;;5064954;28;20594;-64
2021/04/09 07:06:07;;;;;;;22.93;13.93;;;7.10;99.90;;;;;;5068388;28;20791;-64
2021/04/09 07:08:38;;;;;;;23.93;13.47;;;7.20;99.90;;;;;;5068030;28;20211;-63
2021/04/09 07:11:06;;;;;;;22.33;12.70;;;7.30;99.90;;;;;;5065530;28;20281;-63
2021/04/09 07:13:45;;;;;;;20.10;13.10;;;7.20;99.90;;;;;;5065295;28;20192;-61
2021/04/09 07:16:13;;;;;;;25.73;13.07;;;7.40;99.90;;;;;;5068615;28;20291;-63
2021/04/09 07:18:48;;;;;;;25.60;14.17;;;7.50;99.90;;;;;;5068127;28;20265;-63
2021/04/09 07:21:24;;;;;;;23.27;13.63;;;7.90;99.90;;;;;;5068486;28;20548;-63
2021/04/09 07:24:19;;;;;;;23.93;14.23;;;8.30;99.90;;;;;;5076706;28;20299;-63
2021/04/09 07:26:48;;;;;;;20.37;12.97;;;8.50;99.90;;;;;;5064037;28;20200;-63
2021/04/09 07:29:37;;;;;;;23.27;12.10;;;8.90;99.90;;;;;;5062426;28;20266;-63
2021/04/09 07:32:24;;;;;;;23.33;13.27;;;9.40;99.90;;;;;;5060824;28;20250;-63
2021/04/09 07:34:54;;;;;;;17.37;12.17;;;9.60;99.90;;;;;;5063317;28;20200;-63
2021/04/09 07:37:26;;;;;;;20.57;13.30;;;9.60;99.90;;;;;;5068182;28;20208;-63
2021/04/09 07:39:59;;;;;;;19.70;12.93;;;9.40;99.90;;;;;;5063342;28;20251;-61
2021/04/09 07:42:37;;;;;;;21.73;12.23;;;9.20;99.90;;;;;;5067565;28;20247;-63
2021/04/09 07:45:09;;;;;;;21.87;13.17;;;9.00;99.90;;;;;;5062587;28;20227;-63
2021/04/09 07:47:38;;;;;;;21.97;12.93;;;8.90;99.90;;;;;;5071461;28;20605;-63
2021/04/09 07:50:09;;;;;;;19.83;11.87;;;8.90;99.90;;;;;;5077595;28;20195;-62
2021/04/09 07:52:44;;;;;;;20.37;11.83;;;8.70;99.90;;;;;;5066551;28;20674;-64
2021/04/09 07:55:21;;;;;;;20.47;11.80;;;8.70;99.90;;;;;;5068577;28;20187;-63
2021/04/09 07:57:51;;;;;;;19.60;12.17;;;8.70;99.90;;;;;;5066192;28;20192;-63
2021/04/09 08:00:25;;;;;;;21.20;12.07;;;8.70;99.90;;;;;;5067381;28;21128;-63
2021/04/09 08:02:55;;;;;;;17.93;11.57;;;8.90;99.90;;;;;;5073937;28;20223;-63
2021/04/09 08:05:24;;;;;;;21.70;12.47;;;9.20;99.90;;;;;;5068893;28;20287;-63
2021/04/09 08:07:52;;;;;;;22.00;12.47;;;9.40;99.90;;;;;;5068164;28;20214;-63
2021/04/09 08:10:27;;;;;;;22.23;12.87;;;9.90;99.90;;;;;;5063290;28;20187;-63
2021/04/09 08:12:56;;;;;;;17.47;12.33;;;10.50;99.90;;;;;;5067209;28;20252;-63
2021/04/09 08:15:26;;;;;;;19.50;12.03;;;10.70;99.90;;;;;;5068494;28;20595;-63
2021/04/09 08:17:59;;;;;;;26.97;12.23;;;10.70;99.90;;;;;;5074644;28;20191;-63
2021/04/09 08:20:28;;;;;;;21.10;12.57;;;10.60;99.90;;;;;;5067526;28;20307;-63
2021/04/09 08:22:59;;;;;;;22.00;13.03;;;10.40;99.90;;;;;;5079890;28;20249;-63
2021/04/09 08:25:29;;;;;;;23.27;12.17;;;10.40;99.90;;;;;;5064272;28;20200;-63
2021/04/09 08:27:58;;;;;;;21.43;12.30;;;10.50;99.90;;;;;;5064584;28;20195;-63
2021/04/09 08:30:27;;;;;;;16.97;11.77;;;10.90;99.90;;;;;;5069918;28;20234;-63
2021/04/09 08:32:59;;;;;;;20.07;11.77;;;11.20;99.90;;;;;;5069366;28;20227;-63
2021/04/09 08:35:29;;;;;;;18.00;12.67;;;11.30;99.90;;;;;;5072360;28;20192;-63
2021/04/09 08:37:58;;;;;;;18.20;11.90;;;11.20;99.90;;;;;;5069260;28;20550;-63
2021/04/09 08:40:26;;;;;;;17.13;11.10;;;11.50;99.90;;;;;;5069743;28;20242;-63
2021/04/09 08:42:56;;;;;;;14.03;10.77;;;12.20;99.90;;;;;;5072087;28;20192;-63
2021/04/09 08:45:28;;;;;;;15.90;10.80;;;12.30;99.90;;;;;;5073044;28;20558;-63
2021/04/09 08:47:57;;;;;;;16.17;10.63;;;12.70;99.90;;;;;;5077647;28;20223;-63
2021/04/09 08:50:25;;;;;;;22.80;10.97;;;12.70;99.90;;;;;;5070809;28;20659;-63
2021/04/09 08:52:53;;;;;;;15.73;9.40;;;12.80;99.90;;;;;;5077213;28;20754;-63
2021/04/09 08:55:37;;;;;;;11.33;9.47;;;12.80;99.90;;;;;;5069111;28;20180;-63
2021/04/09 08:58:15;;;;;;;11.77;8.13;;;12.70;99.90;;;;;;5071061;28;20266;-63
2021/04/09 09:00:43;;;;;;;12.80;8.00;;;12.60;99.90;;;;;;5068170;28;20250;-63
2021/04/09 09:03:26;;;;;;;15.60;8.90;;;12.80;99.90;;;;;;5069234;28;20238;-63
2021/04/09 09:05:56;;;;;;;12.40;8.73;;;13.10;99.90;;;;;;5075574;28;20236;-63
2021/04/09 09:08:24;;;;;;;10.60;8.27;;;13.20;99.90;;;;;;5055729;28;20184;-63
2021/04/09 09:10:51;;;;;;;12.87;9.00;;;13.40;99.90;;;;;;5073419;28;20219;-63
2021/04/09 09:13:30;;;;;;;13.83;9.20;;;13.80;99.90;;;;;;5069149;28;20188;-63
2021/04/09 09:16:02;;;;;;;17.67;9.33;;;14.10;99.90;;;;;;5069485;28;20249;-64
2021/04/09 09:18:50;;;;;;;14.33;9.30;;;14.40;99.90;;;;;;5071235;28;20270;-64
2021/04/09 09:21:37;;;;;;;15.90;9.60;;;14.30;99.90;;;;;;5069122;28;20678;-63
2021/04/09 09:24:24;;;;;;;16.70;10.03;;;14.80;99.90;;;;;;5066871;28;20199;-64
2021/04/09 09:26:52;;;;;;;15.43;9.90;;;15.40;99.90;;;;;;5071710;28;20184;-64
2021/04/09 09:29:23;;;;;;;19.63;8.97;;;16.00;99.90;;;;;;5080404;28;20196;-64
2021/04/09 09:32:02;;;;;;;13.93;8.10;;;16.80;99.90;;;;;;5071657;28;20283;-64
2021/04/09 09:34:35;;;;;;;9.73;8.47;;;17.40;99.90;;;;;;5066969;28;20637;-61
2021/04/09 09:37:07;;;;;;;13.10;7.53;;;17.30;99.90;;;;;;5067959;28;20942;-64
2021/04/09 09:39:38;;;;;;;11.30;6.93;;;16.90;99.90;;;;;;5067532;28;20208;-64
2021/04/09 09:42:10;;;;;;;21.07;9.83;;;17.00;99.90;;;;;;5068472;28;20225;-64
2021/04/09 09:44:46;;;;;;;7.77;6.10;;;16.80;99.90;;;;;;5062801;28;20199;-64
2021/04/09 09:47:34;;;;;;;6.93;6.00;;;17.10;99.90;;;;;;5063963;28;20249;-64
2021/04/09 09:50:20;;;;;;;10.50;6.97;;;16.90;99.90;;;;;;5072978;28;20198;-64
2021/04/09 09:52:55;;;;;;;11.60;5.83;;;17.40;99.90;;;;;;5074464;28;20268;-64
2021/04/09 09:55:25;;;;;;;10.97;6.10;;;18.00;99.90;;;;;;5068876;28;20249;-62
2021/04/09 09:57:54;;;;;;;10.33;5.93;;;18.30;99.90;;;;;;5072648;28;20192;-64
2021/04/09 10:00:29;;;;;;;8.90;6.37;;;18.30;99.90;;;;;;5082750;28;20741;-64
2021/04/09 10:03:16;;;;;;;10.50;5.00;;;17.90;99.90;;;;;;5072615;28;20253;-64
2021/04/09 10:05:46;;;;;;;8.90;5.70;;;18.20;99.90;;;;;;5072535;28;20185;-64
2021/04/09 10:08:15;;;;;;;10.03;5.70;;;18.40;99.90;;;;;;5069361;28;20261;-64
2021/04/09 10:10:45;;;;;;;10.57;5.17;;;18.60;99.90;;;;;;5068354;28;20187;-64
2021/04/09 10:13:25;;;;;;;6.77;5.27;;;18.60;99.90;;;;;;5069317;28;20254;-63
2021/04/09 10:15:55;;;;;;;6.60;5.47;;;18.60;99.90;;;;;;5066593;28;20851;-64
2021/04/09 10:18:27;;;;;;;9.13;6.07;;;18.50;99.90;;;;;;5064928;28;20234;-64
2021/04/09 10:20:54;;;;;;;7.97;6.10;;;18.60;99.90;;;;;;5061799;28;20659;-64
2021/04/09 10:23:24;;;;;;;6.60;5.47;;;18.90;99.90;;;;;;5060770;28;20200;-64
2021/04/09 10:25:53;;;;;;;9.80;5.77;;;18.80;99.90;;;;;;5064369;28;20244;-64
2021/04/09 10:28:23;;;;;;;10.27;6.50;;;18.40;99.90;;;;;;5064709;28;20290;-63
2021/04/09 10:30:53;;;;;;;8.03;5.93;;;18.00;99.90;;;;;;5064916;28;20188;-63
2021/04/09 10:33:36;;;;;;;6.53;5.37;;;18.00;99.90;;;;;;5064173;28;20282;-64
2021/04/09 10:36:21;;;;;;;8.80;5.17;;;18.30;99.90;;;;;;5062336;28;20193;-64
2021/04/09 10:38:50;;;;;;;7.37;5.53;;;18.60;99.90;;;;;;5065466;28;20219;-64
2021/04/09 10:41:30;;;;;;;6.47;5.00;;;18.50;99.90;;;;;;5061643;28;20201;-64
2021/04/09 10:44:00;;;;;;;8.97;5.13;;;18.00;99.90;;;;;;5065910;28;20192;-63
2021/04/09 10:46:29;;;;;;;12.10;5.47;;;17.70;99.90;;;;;;5071684;28;20210;-63
2021/04/09 10:49:03;;;;;;;8.17;5.57;;;17.20;99.90;;;;;;5073504;28;20231;-64
2021/04/09 10:51:32;;;;;;;11.97;5.90;;;17.10;99.90;;;;;;5059731;28;20264;-64
2021/04/09 10:54:17;;;;;;;8.27;6.37;;;17.10;99.90;;;;;;5059704;28;20196;-62
2021/04/09 10:56:50;;;;;;;9.23;6.20;;;17.80;99.90;;;;;;5057813;28;20195;-62
2021/04/09 10:59:20;;;;;;;10.13;6.33;;;18.10;99.90;;;;;;5062787;28;20208;-64
2021/04/09 11:01:48;;;;;;;7.83;5.13;;;18.00;99.90;;;;;;5069544;28;20196;-64
2021/04/09 11:04:18;;;;;;;7.20;6.10;;;17.80;99.90;;;;;;5066418;28;20192;-64
2021/04/09 11:06:49;;;;;;;7.87;5.13;;;17.20;99.90;;;;;;5063064;28;20273;-64
2021/04/09 11:09:17;;;;;;;7.20;4.57;;;16.80;99.90;;;;;;5068426;28;20191;-62
2021/04/09 11:11:49;;;;;;;5.87;4.83;;;16.50;99.90;;;;;;5065447;28;20191;-64
2021/04/09 11:14:18;;;;;;;6.87;5.10;;;16.60;99.90;;;;;;5065540;28;20667;-64
2021/04/09 11:16:57;;;;;;;7.13;4.90;;;16.90;99.90;;;;;;5067927;28;20226;-64
2021/04/09 11:19:34;;;;;;;6.73;5.00;;;16.90;99.90;;;;;;5066601;28;20277;-64
2021/04/09 11:22:03;;;;;;;10.83;5.40;;;16.70;99.90;;;;;;5065430;28;20195;-64
2021/04/09 11:24:35;;;;;;;8.37;5.20;;;17.00;99.90;;;;;;5065550;28;20196;-63
2021/04/09 11:27:20;;;;;;;6.60;4.53;;;17.50;99.90;;;;;;5065255;28;20191;-63
2021/04/09 11:29:48;;;;;;;5.70;5.10;;;17.90;99.90;;;;;;5064834;28;20188;-64
2021/04/09 11:32:20;;;;;;;5.67;4.50;;;18.10;99.90;;;;;;5050112;28;20655;-64
2021/04/09 11:34:50;;;;;;;5.27;4.77;;;18.00;99.90;;;;;;5066232;28;20985;-64
2021/04/09 11:37:20;;;;;;;5.90;4.50;;;17.90;99.90;;;;;;5067344;28;20204;-62
2021/04/09 11:39:52;;;;;;;17.33;5.20;;;17.70;99.90;;;;;;5066619;28;20211;-64
2021/04/09 11:42:33;;;;;;;10.47;5.33;;;17.80;99.90;;;;;;5064807;28;20223;-62
2021/04/09 11:45:02;;;;;;;7.83;5.40;;;17.30;99.90;;;;;;5060068;28;20686;-64
2021/04/09 11:47:33;;;;;;;7.17;5.40;;;17.10;99.90;;;;;;5066937;28;20192;-63
2021/04/09 11:50:17;;;;;;;6.10;5.00;;;17.10;99.90;;;;;;5062843;28;20184;-64
2021/04/09 11:52:59;;;;;;;6.90;5.30;;;17.20;99.90;;;;;;5067116;28;20207;-64
2021/04/09 11:55:29;;;;;;;7.77;5.90;;;17.20;99.90;;;;;;5065292;28;20229;-63
2021/04/09 11:58:19;;;;;;;5.50;5.10;;;17.00;99.90;;;;;;5069170;28;20196;-64
2021/04/09 12:00:54;;;;;;;5.90;5.00;;;17.30;99.90;;;;;;5065501;28;20192;-64
2021/04/09 12:03:37;;;;;;;10.87;6.57;;;17.90;99.90;;;;;;5059075;28;20219;-63
2021/04/09 12:06:13;;;;;;;6.40;5.80;;;17.90;99.90;;;;;;5064472;28;20203;-63
2021/04/09 12:08:41;;;;;;;9.73;5.70;;;17.70;99.90;;;;;;5063580;28;20270;-64
2021/04/09 12:11:09;;;;;;;6.33;5.37;;;17.30;99.90;;;;;;5063386;28;20784;-63
2021/04/09 12:13:37;;;;;;;8.83;5.60;;;17.20;99.90;;;;;;5066253;28;20251;-63
2021/04/09 12:16:06;;;;;;;7.20;6.20;;;17.60;99.90;;;;;;5064548;28;20235;-64
2021/04/09 12:18:34;;;;;;;7.13;6.40;;;17.90;99.90;;;;;;5073451;28;20195;-63
2021/04/09 12:21:01;;;;;;;7.17;5.67;;;17.50;99.90;;;;;;5075348;28;20772;-64
2021/04/09 12:23:38;;;;;;;6.80;6.13;;;17.20;99.90;;;;;;5069810;28;20203;-63
2021/04/09 12:26:06;;;;;;;8.13;6.47;;;17.00;99.90;;;;;;5068192;28;20583;-64
2021/04/09 12:28:33;;;;;;;8.60;6.00;;;17.10;99.90;;;;;;5065512;28;20289;-64
2021/04/09 12:31:01;;;;;;;8.23;6.80;;;17.70;99.90;;;;;;5068340;28;20278;-63
2021/04/09 12:33:28;;;;;;;6.53;5.80;;;18.20;99.90;;;;;;5070014;28;20202;-62
2021/04/09 12:35:56;;;;;;;6.77;6.03;;;18.60;99.90;;;;;;5066983;28;20282;-62
2021/04/09 12:38:25;;;;;;;8.67;6.10;;;18.60;99.90;;;;;;5082228;28;20213;-61
2021/04/09 12:40:54;;;;;;;8.03;6.30;;;18.10;99.90;;;;;;5070318;28;20200;-62
2021/04/09 12:43:22;;;;;;;9.87;6.60;;;17.80;99.90;;;;;;5070467;28;20245;-61
2021/04/09 12:45:49;;;;;;;6.67;6.07;;;17.70;99.90;;;;;;5076927;28;20235;-62
2021/04/09 12:48:17;;;;;;;6.93;6.20;;;17.80;99.90;;;;;;5074179;28;20196;-63
2021/04/09 12:50:45;;;;;;;10.53;6.07;;;17.90;99.90;;;;;;5068349;28;20249;-62
2021/04/09 12:53:12;;;;;;;8.53;5.80;;;17.90;99.90;;;;;;5068115;28;20245;-62
2021/04/09 12:55:39;;;;;;;9.03;5.80;;;17.80;99.90;;;;;;5066830;28;20334;-61